Time;durP1;ratioP1;P1;durP2;ratioP2;P2;SDS_P1;SDS_P2;PMS_P1;PMS_P2;Temp;Humidity;BMP_temperature;BMP_pressure;BME280_temperature;BME280_humidity;BME280_pressure;Samples;Min_cycle;Max_cycle;Signal;HPM_P1;HPM_P2
2022/07/04 00:02:00;;;;;;;4.70;2.00;;;;;;;25.47;40.29;100626.33;117123;1188;22737;-56
2022/07/04 00:04:27;;;;;;;6.10;2.50;;;;;;;25.51;40.28;100629.45;117294;1186;23547;-54
2022/07/04 00:06:54;;;;;;;4.30;2.00;;;;;;;25.54;40.19;100629.80;117154;1189;21922;-54
2022/07/04 00:09:21;;;;;;;3.30;2.00;;;;;;;25.56;40.20;100629.13;117143;1182;24154;-58
2022/07/04 00:11:48;;;;;;;8.20;2.70;;;;;;;25.58;40.04;100627.57;117152;1188;23435;-54
2022/07/04 00:14:15;;;;;;;7.90;2.50;;;;;;;25.58;39.97;100628.06;117100;1182;21911;-54
2022/07/04 00:16:42;;;;;;;7.80;3.00;;;;;;;25.65;39.92;100629.39;117103;1186;22924;-54
2022/07/04 00:19:09;;;;;;;10.20;2.30;;;;;;;25.64;39.99;100628.86;117281;1186;22905;-54
2022/07/04 00:21:36;;;;;;;4.00;2.10;;;;;;;25.66;40.09;100633.06;117133;1183;22942;-56
2022/07/04 00:24:03;;;;;;;5.20;2.20;;;;;;;25.68;40.11;100638.48;117248;1186;21860;-56
2022/07/04 00:26:30;;;;;;;6.50;2.80;;;;;;;25.71;40.14;100648.20;117159;1189;21860;-55
2022/07/04 00:28:57;;;;;;;5.00;2.20;;;;;;;25.75;40.20;100670.52;117320;1183;22711;-54
2022/07/04 00:31:24;;;;;;;4.30;2.00;;;;;;;25.78;40.18;100684.50;117124;1186;23445;-54
2022/07/04 00:33:51;;;;;;;5.20;2.50;;;;;;;25.78;40.15;100687.19;117092;1188;22914;-54
2022/07/04 00:36:18;;;;;;;7.20;2.20;;;;;;;25.77;40.09;100688.52;117098;1186;23637;-55
2022/07/04 00:38:45;;;;;;;2.60;2.00;;;;;;;25.77;40.01;100690.52;117165;1185;21858;-57
2022/07/04 00:41:12;;;;;;;7.50;2.20;;;;;;;25.78;39.90;100685.98;117170;1186;24754;-54
2022/07/04 00:43:39;;;;;;;4.90;2.20;;;;;;;25.80;39.78;100689.42;117134;1183;22902;-54
2022/07/04 00:46:26;;;;;;;4.70;2.40;;;;;;;25.84;39.78;100690.89;117168;1182;23558;-54
2022/07/04 00:48:54;;;;;;;7.30;2.50;;;;;;;25.88;39.72;100684.52;117181;1183;21863;-57
2022/07/04 00:51:21;;;;;;;5.00;2.20;;;;;;;25.92;39.75;100683.91;117186;1182;22591;-53
2022/07/04 00:53:49;;;;;;;3.40;2.10;;;;;;;25.95;39.69;100684.75;117158;1188;21872;-54
2022/07/04 00:56:16;;;;;;;4.70;2.10;;;;;;;25.97;39.71;100683.30;117327;1183;22912;-53
2022/07/04 00:58:43;;;;;;;4.50;2.00;;;;;;;26.00;39.61;100679.15;117226;1176;23685;-53
2022/07/04 01:01:10;;;;;;;4.00;1.90;;;;;;;26.03;39.62;100679.83;117129;1182;21852;-57
2022/07/04 01:03:37;;;;;;;3.70;2.40;;;;;;;26.05;39.60;100685.48;117306;1181;22719;-54
2022/07/04 01:06:04;;;;;;;5.50;2.10;;;;;;;26.06;39.72;100684.52;117220;1185;22901;-57
2022/07/04 01:08:31;;;;;;;7.80;2.50;;;;;;;26.11;39.57;100678.20;117139;1188;23531;-55
2022/07/04 01:10:58;;;;;;;4.90;2.20;;;;;;;26.14;39.54;100677.82;117194;1186;21864;-54
2022/07/04 01:13:25;;;;;;;6.30;2.50;;;;;;;26.16;39.60;100679.45;117215;1182;21861;-57
2022/07/04 01:15:51;;;;;;;6.10;2.30;;;;;;;26.17;39.65;100678.14;117048;1188;23450;-57
2022/07/04 01:18:19;;;;;;;3.30;2.00;;;;;;;26.17;39.67;100680.09;117323;1188;21853;-57
2022/07/04 01:20:45;;;;;;;4.40;1.90;;;;;;;26.18;39.73;100680.80;117276;1182;21846;-56
2022/07/04 01:23:12;;;;;;;5.80;2.50;;;;;;;26.19;39.76;100680.67;117320;1186;24219;-57
2022/07/04 01:25:39;;;;;;;5.60;2.50;;;;;;;26.21;39.85;100681.08;117163;1182;22062;-55
2022/07/04 01:28:06;;;;;;;7.10;2.20;;;;;;;26.23;39.77;100683.10;117188;1181;21857;-56
2022/07/04 01:30:34;;;;;;;6.00;2.10;;;;;;;26.23;39.82;100677.38;117283;1186;23423;-55
2022/07/04 01:33:01;;;;;;;4.60;2.30;;;;;;;26.21;39.84;100677.28;117222;1185;21978;-54
2022/07/04 01:35:28;;;;;;;5.50;2.40;;;;;;;26.20;39.92;100680.41;117189;1185;23434;-56
2022/07/04 01:37:55;;;;;;;9.20;2.40;;;;;;;26.18;39.96;100676.67;117372;1186;21870;-54
2022/07/04 01:40:22;;;;;;;4.70;2.50;;;;;;;26.12;40.02;100673.24;117159;1188;22636;-57
2022/07/04 01:42:49;;;;;;;7.50;2.90;;;;;;;26.07;40.10;100675.27;117253;1182;24602;-55
2022/07/04 01:45:16;;;;;;;6.10;2.70;;;;;;;26.02;40.16;100677.25;117111;1187;23452;-58
2022/07/04 01:47:43;;;;;;;5.40;2.50;;;;;;;25.97;40.24;100675.78;117100;1185;21864;-54
2022/07/04 01:50:13;;;;;;;7.00;2.60;;;;;;;25.93;40.45;100674.09;117303;1185;22851;-54
2022/07/04 01:52:40;;;;;;;7.10;2.50;;;;;;;25.90;40.46;100676.86;117254;1186;23618;-54
2022/07/04 01:55:10;;;;;;;10.70;3.30;;;;;;;25.85;40.48;100677.68;117274;1184;22911;-58
2022/07/04 01:57:38;;;;;;;8.20;2.80;;;;;;;25.81;40.65;100682.69;117334;1180;22929;-56
2022/07/04 02:02:52;;;;;;;7.20;3.00;;;;;;;25.70;40.91;100684.16;117193;1182;22932;-54
2022/07/04 02:05:19;;;;;;;7.40;3.30;;;;;;;25.65;41.11;100690.27;117240;1185;22626;-54
2022/07/04 02:07:46;;;;;;;6.50;3.00;;;;;;;25.60;41.25;100691.35;117230;1186;23534;-54
2022/07/04 02:10:13;;;;;;;8.20;3.50;;;;;;;25.50;41.41;100687.70;117145;1184;22902;-54
2022/07/04 02:15:26;;;;;;;7.50;3.30;;;;;;;25.42;41.61;100684.84;117294;1183;22939;-54
2022/07/04 02:17:53;;;;;;;10.20;3.20;;;;;;;25.40;41.73;100685.52;117210;1187;21858;-58
2022/07/04 02:20:20;;;;;;;12.30;3.40;;;;;;;25.36;41.98;100683.11;117306;1182;23564;-55
2022/07/04 02:22:47;;;;;;;9.10;3.00;;;;;;;25.30;42.27;100684.08;117105;1186;21892;-54
2022/07/04 02:25:14;;;;;;;5.10;2.80;;;;;;;25.24;42.39;100676.53;117190;1184;21855;-56
2022/07/04 02:27:41;;;;;;;5.50;3.10;;;;;;;25.21;42.53;100679.67;117182;1185;22642;-54
2022/07/04 02:30:08;;;;;;;8.40;2.70;;;;;;;25.17;42.77;100681.51;117226;1189;22576;-54
2022/07/04 02:32:35;;;;;;;7.90;2.70;;;;;;;25.13;42.50;100675.17;117253;1186;23567;-54
2022/07/04 02:35:03;;;;;;;8.50;2.30;;;;;;;25.10;42.59;100678.64;117180;1186;23571;-54
2022/07/04 02:37:30;;;;;;;11.40;4.60;;;;;;;25.04;43.11;100679.74;117167;1184;21846;-56
2022/07/04 02:39:57;;;;;;;5.20;2.60;;;;;;;24.90;43.27;100676.35;117224;1182;21885;-54
2022/07/04 02:42:23;;;;;;;6.40;2.70;;;;;;;24.75;43.11;100679.17;117157;1185;23531;-56
2022/07/04 02:44:50;;;;;;;5.30;3.00;;;;;;;24.65;43.18;100681.95;117312;1185;21910;-54
2022/07/04 02:47:17;;;;;;;5.10;2.90;;;;;;;24.56;43.44;100679.35;117172;1188;22978;-57
2022/07/04 02:49:44;;;;;;;5.50;2.70;;;;;;;24.47;43.50;100682.98;117126;1186;23000;-54
2022/07/04 02:52:11;;;;;;;9.60;3.00;;;;;;;24.40;43.53;100687.39;117131;1183;22619;-54
2022/07/04 02:54:38;;;;;;;8.90;2.60;;;;;;;24.34;43.77;100696.02;117199;1182;21862;-56
2022/07/04 02:57:06;;;;;;;7.20;2.70;;;;;;;24.26;44.38;100697.61;117122;1186;21993;-54
2022/07/04 02:59:33;;;;;;;5.60;2.70;;;;;;;24.19;44.33;100695.74;117272;1185;21854;-58
2022/07/04 03:02:00;;;;;;;5.00;2.70;;;;;;;24.13;44.74;100696.83;117187;1182;22009;-56
2022/07/04 03:04:27;;;;;;;10.70;2.90;;;;;;;24.08;44.76;100699.27;117114;1186;23015;-56
2022/07/04 03:06:54;;;;;;;6.60;2.90;;;;;;;24.05;44.79;100698.19;117239;1186;21865;-56
2022/07/04 03:09:21;;;;;;;9.10;2.90;;;;;;;24.03;44.88;100699.79;117174;1183;23454;-56
2022/07/04 03:11:48;;;;;;;10.50;3.20;;;;;;;24.03;44.98;100699.95;117109;1185;21991;-58
2022/07/04 03:14:15;;;;;;;19.80;4.90;;;;;;;24.07;44.83;100698.98;117148;1186;21857;-54
2022/07/04 03:16:42;;;;;;;16.10;6.10;;;;;;;24.11;44.86;100692.27;117165;1183;22912;-57
2022/07/04 03:19:09;;;;;;;18.30;7.10;;;;;;;24.14;44.82;100688.16;117268;1186;23271;-54
2022/07/04 03:21:36;;;;;;;13.20;5.00;;;;;;;24.16;45.08;100684.25;117188;1186;22628;-54
2022/07/04 03:24:03;;;;;;;5.60;2.90;;;;;;;24.13;45.17;100684.96;117346;1183;21860;-54
2022/07/04 03:26:31;;;;;;;7.30;3.20;;;;;;;24.10;44.96;100688.23;117326;1185;21865;-55
2022/07/04 03:28:59;;;;;;;5.90;2.70;;;;;;;24.07;45.23;100689.33;117218;1187;21870;-54
2022/07/04 03:31:26;;;;;;;5.10;2.60;;;;;;;24.03;45.29;100690.66;117385;1182;23454;-56
2022/07/04 03:33:53;;;;;;;12.90;3.30;;;;;;;24.00;45.27;100684.38;117413;1185;22918;-55
2022/07/04 03:36:20;;;;;;;5.90;2.80;;;;;;;24.01;45.41;100683.96;117199;1185;21908;-57
2022/07/04 03:38:47;;;;;;;5.50;2.80;;;;;;;24.02;45.58;100689.98;117050;1187;21851;-57
2022/07/04 03:41:15;;;;;;;10.00;3.20;;;;;;;24.02;45.61;100697.32;117097;1182;23436;-58
2022/07/04 03:43:41;;;;;;;6.60;3.10;;;;;;;24.05;45.66;100706.29;117121;1187;21881;-54
2022/07/04 03:46:08;;;;;;;12.70;4.00;;;;;;;24.10;45.62;100713.17;117084;1182;23505;-54
2022/07/04 03:48:36;;;;;;;8.80;4.00;;;;;;;24.17;45.27;100723.11;117166;1186;22912;-54
2022/07/04 03:51:03;;;;;;;6.10;3.00;;;;;;;24.25;45.34;100742.31;117130;1182;22840;-56
2022/07/04 03:53:30;;;;;;;7.30;2.80;;;;;;;24.33;45.45;100765.66;117161;1186;23066;-57
2022/07/04 03:55:57;;;;;;;6.90;2.50;;;;;;;24.36;45.49;100784.61;117400;1188;23584;-54
2022/07/04 03:58:24;;;;;;;5.90;2.40;;;;;;;24.35;45.20;100794.73;117322;1180;22911;-56
2022/07/04 04:00:50;;;;;;;11.30;2.10;;;;;;;24.34;45.03;100786.02;117286;1186;23455;-56
2022/07/04 04:06:03;;;;;;;5.70;1.90;;;;;;;24.41;45.04;100771.58;117315;1182;22645;-54
2022/07/04 04:08:30;;;;;;;4.10;2.50;;;;;;;24.46;44.97;100757.27;117141;1185;23468;-58
2022/07/04 04:10:57;;;;;;;7.10;2.10;;;;;;;24.53;44.88;100747.73;117174;1186;24255;-54
2022/07/04 04:13:24;;;;;;;3.90;2.40;;;;;;;24.58;44.78;100734.64;117240;1185;21853;-57
2022/07/04 04:15:51;;;;;;;7.40;1.90;;;;;;;24.63;44.83;100726.41;117113;1187;21871;-57
2022/07/04 04:18:18;;;;;;;3.60;1.90;;;;;;;24.67;45.02;100718.63;117264;1185;21855;-57
2022/07/04 04:20:45;;;;;;;4.10;1.90;;;;;;;24.69;44.99;100717.94;117327;1182;22738;-53
2022/07/04 04:23:12;;;;;;;6.30;2.20;;;;;;;24.71;45.01;100722.51;117117;1182;21859;-54
2022/07/04 04:25:38;;;;;;;3.20;1.90;;;;;;;24.73;45.16;100719.15;117167;1188;21857;-54
2022/07/04 04:28:05;;;;;;;5.40;3.00;;;;;;;24.76;45.37;100717.68;117202;1186;22522;-57
2022/07/04 04:30:33;;;;;;;5.10;2.10;;;;;;;24.70;45.72;100711.95;117197;1183;21864;-54
2022/07/04 04:33:00;;;;;;;3.60;2.20;;;;;;;24.53;45.70;100704.27;117110;1186;22918;-54
2022/07/04 04:35:27;;;;;;;4.20;2.00;;;;;;;24.33;45.95;100697.17;118378;1186;21844;-58
2022/07/04 04:37:54;;;;;;;4.70;2.00;;;;;;;24.15;46.02;100701.35;118110;1182;21856;-54
2022/07/04 04:40:21;;;;;;;3.70;2.10;;;;;;;24.00;46.54;100706.61;117131;1187;23475;-57
2022/07/04 04:42:48;;;;;;;4.70;2.00;;;;;;;23.91;46.88;100706.08;117126;1182;21860;-53
2022/07/04 04:45:15;;;;;;;6.20;1.80;;;;;;;23.87;46.82;100716.18;117115;1183;24116;-57
2022/07/04 04:47:43;;;;;;;3.80;2.00;;;;;;;23.84;46.80;100722.99;117044;1188;21857;-53
2022/07/04 04:50:11;;;;;;;4.80;2.20;;;;;;;23.82;46.38;100731.16;117171;1182;22929;-54
2022/07/04 04:52:38;;;;;;;4.00;2.10;;;;;;;23.84;46.40;100732.10;117146;1186;22240;-57
2022/07/04 04:55:06;;;;;;;3.30;1.80;;;;;;;23.87;46.35;100726.89;117080;1186;21861;-54
2022/07/04 04:57:33;;;;;;;3.80;1.90;;;;;;;23.88;46.69;100712.33;117161;1187;22929;-57
2022/07/04 05:00:01;;;;;;;6.20;2.80;;;;;;;23.88;46.90;100693.70;117286;1186;23471;-52
2022/07/04 05:02:28;;;;;;;9.40;2.40;;;;;;;23.86;47.48;100678.44;117202;1182;21855;-52
2022/07/04 05:04:55;;;;;;;7.90;2.30;;;;;;;23.77;47.59;100668.09;117217;1182;22131;-58
2022/07/04 05:07:22;;;;;;;5.30;2.50;;;;;;;23.64;48.21;100659.73;117206;1183;21860;-58
2022/07/04 05:09:49;;;;;;;5.50;2.00;;;;;;;23.51;48.61;100665.19;117322;1186;21881;-53
2022/07/04 05:12:16;;;;;;;4.30;2.50;;;;;;;23.42;48.66;100677.00;117256;1186;21855;-57
2022/07/04 05:14:43;;;;;;;5.50;3.00;;;;;;;23.38;48.84;100689.27;117342;1182;23467;-53
2022/07/04 05:17:11;;;;;;;7.00;3.50;;;;;;;23.44;48.86;100710.05;117098;1187;21862;-53
2022/07/04 05:19:38;;;;;;;7.40;3.10;;;;;;;23.59;49.10;100720.38;117756;1187;21858;-57
2022/07/04 05:22:05;;;;;;;10.90;3.80;;;;;;;23.81;49.15;100725.65;116976;1187;23445;-58
2022/07/04 05:24:32;;;;;;;8.30;3.50;;;;;;;24.06;49.64;100718.56;117140;1183;22325;-54
2022/07/04 05:27:02;;;;;;;;;;;;;;;24.20;50.34;100710.34;117202;1182;21837;-56
2022/07/04 05:29:29;;;;;;;9.90;3.10;;;;;;;24.21;50.57;100699.73;117106;1187;23522;-53
2022/07/04 05:31:56;;;;;;;6.80;3.30;;;;;;;24.17;50.40;100693.36;117375;1182;22958;-56
2022/07/04 05:34:23;;;;;;;6.10;2.80;;;;;;;24.11;50.45;100692.66;117317;1186;21867;-57
2022/07/04 05:36:50;;;;;;;7.40;3.20;;;;;;;24.12;51.26;100690.23;117142;1182;24265;-59
2022/07/04 05:39:17;;;;;;;6.80;3.10;;;;;;;24.21;51.80;100683.23;117055;1185;22807;-59
2022/07/04 05:41:44;;;;;;;6.50;3.30;;;;;;;24.33;52.99;100682.08;117030;1185;22912;-58
2022/07/04 05:44:11;;;;;;;7.60;3.30;;;;;;;24.48;52.94;100676.49;117377;1182;22721;-59
2022/07/04 05:46:38;;;;;;;4.80;3.20;;;;;;;24.61;53.54;100674.17;117210;1186;22833;-58
2022/07/04 05:49:06;;;;;;;7.40;3.30;;;;;;;24.77;52.90;100677.44;117339;1182;21821;-54
2022/07/04 05:51:33;;;;;;;5.60;2.90;;;;;;;24.89;52.66;100677.20;117019;1187;21864;-52
2022/07/04 05:54:01;;;;;;;5.70;2.90;;;;;;;24.97;52.13;100674.08;117231;1186;22006;-53
2022/07/04 05:56:28;;;;;;;5.80;3.70;;;;;;;25.08;52.14;100677.13;117098;1187;21883;-54
2022/07/04 05:58:54;;;;;;;6.20;3.00;;;;;;;25.20;52.14;100673.27;117116;1186;21877;-59
2022/07/04 08:23:14;;;;;;;4.70;2.30;;;;;;;30.87;44.56;100675.06;115046;1203;547967;-59
2022/07/04 08:25:41;;;;;;;6.30;2.70;;;;;;;32.18;40.49;100661.54;116690;1188;24710;-49
2022/07/04 08:28:08;;;;;;;7.00;3.10;;;;;;;32.09;39.28;100655.01;116868;1189;22533;-59
2022/07/04 08:30:35;;;;;;;8.30;3.70;;;;;;;32.02;39.35;100655.82;116705;1190;24000;-49
2022/07/04 08:33:02;;;;;;;8.80;5.10;;;;;;;31.99;38.95;100651.47;116585;1192;22823;-49
2022/07/04 08:35:29;;;;;;;5.70;3.50;;;;;;;32.04;38.80;100653.66;116627;1192;21867;-50
2022/07/04 08:37:56;;;;;;;5.90;2.90;;;;;;;32.16;39.11;100651.55;116493;1192;23608;-58
2022/07/04 08:40:24;;;;;;;4.50;2.50;;;;;;;32.34;38.41;100650.91;116609;1191;24145;-58
2022/07/04 08:42:51;;;;;;;4.90;2.50;;;;;;;32.54;37.15;100652.33;116541;1191;21880;-50
2022/07/04 08:45:23;;;;;;;3.30;2.30;;;;;;;32.79;36.24;100650.93;116601;1190;22891;-51
2022/07/04 08:47:52;;;;;;;4.50;2.80;;;;;;;33.05;36.76;100650.06;116443;1191;21967;-59
2022/07/04 08:50:22;;;;;;;11.30;2.60;;;;;;;33.33;36.94;100648.34;116491;1189;24259;-58
2022/07/04 08:52:54;;;;;;;5.40;2.60;;;;;;;33.46;35.99;100654.42;116680;1190;23560;-50
2022/07/04 09:00:53;;;;;;;4.30;2.70;;;;;;;33.61;33.94;100652.08;116631;1192;21857;-57
2022/07/04 09:03:21;;;;;;;4.80;2.50;;;;;;;33.59;34.50;100650.80;116642;1190;23288;-48
2022/07/04 09:05:48;;;;;;;7.20;2.90;;;;;;;33.69;35.39;100649.80;116709;1189;23452;-52
2022/07/04 09:08:16;;;;;;;3.70;2.60;;;;;;;33.87;34.96;100644.27;116647;1189;21961;-57
2022/07/04 09:10:43;;;;;;;8.30;2.70;;;;;;;34.04;34.22;100643.89;116576;1190;23481;-53
2022/07/04 09:13:11;;;;;;;4.70;2.90;;;;;;;34.23;34.87;100640.59;116746;1191;25771;-50
2022/07/04 09:15:40;;;;;;;6.50;2.60;;;;;;;34.49;34.66;100639.23;116618;1192;23487;-50
2022/07/04 09:18:25;;;;;;;8.40;2.90;;;;;;;34.79;34.61;100635.95;116619;1192;22064;-58
2022/07/04 09:21:03;;;;;;;3.70;2.30;;;;;;;35.10;34.27;100631.23;116582;1188;21862;-58
2022/07/04 09:23:35;;;;;;;4.10;2.70;;;;;;;35.34;33.97;100630.14;116624;1191;22929;-49
2022/07/04 09:26:19;;;;;;;4.40;2.60;;;;;;;35.47;33.46;100627.61;116651;1189;21855;-58
2022/07/04 09:28:57;;;;;;;6.10;2.60;;;;;;;35.78;33.17;100630.71;116473;1191;23560;-58
2022/07/04 09:31:27;;;;;;;4.80;2.50;;;;;;;36.10;33.12;100628.95;116475;1189;22428;-50
2022/07/04 09:33:56;;;;;;;7.30;3.20;;;;;;;36.28;33.05;100626.48;116600;1190;21861;-49
2022/07/04 09:36:28;;;;;;;8.60;3.10;;;;;;;36.56;32.33;100623.76;116668;1190;23551;-59
2022/07/04 09:39:15;;;;;;;4.70;2.80;;;;;;;36.72;30.84;100623.91;116575;1192;21860;-58
2022/07/04 09:41:55;;;;;;;3.20;2.20;;;;;;;36.80;31.80;100621.60;116787;1188;21859;-49
2022/07/04 09:44:36;;;;;;;6.40;2.50;;;;;;;36.74;31.44;100621.04;116927;1188;23474;-58
2022/07/04 09:47:22;;;;;;;8.50;2.50;;;;;;;36.62;30.83;100622.52;116755;1187;22918;-58
2022/07/04 09:50:18;;;;;;;7.90;3.10;;;;;;;36.48;30.80;100622.52;116932;1185;22954;-58
2022/07/04 09:53:05;;;;;;;7.50;2.80;;;;;;;36.27;29.26;100624.45;116910;1188;22931;-50
2022/07/04 09:55:37;;;;;;;17.90;4.00;;;;;;;36.13;30.45;100627.16;116978;1183;21861;-51
2022/07/04 09:58:08;;;;;;;15.50;3.60;;;;;;;36.23;28.73;100628.94;116905;1188;22922;-51
2022/07/04 10:00:36;;;;;;;12.60;4.40;;;;;;;36.19;28.83;100626.70;116844;1188;24161;-50
2022/07/04 10:03:22;;;;;;;12.10;7.10;;;;;;;36.17;27.48;100622.50;116938;1188;21894;-60
2022/07/04 10:06:06;;;;;;;8.20;3.10;;;;;;;36.25;28.07;100618.09;116939;1183;21840;-59
2022/07/04 10:08:33;;;;;;;6.40;2.70;;;;;;;36.30;26.29;100617.27;116872;1188;22865;-59
2022/07/04 10:11:02;;;;;;;4.30;2.30;;;;;;;36.23;25.65;100620.29;117063;1188;23581;-51
2022/07/04 10:13:35;;;;;;;5.10;2.50;;;;;;;36.26;27.63;100617.42;116893;1188;23718;-50
2022/07/04 10:16:02;;;;;;;3.40;2.30;;;;;;;36.30;27.93;100611.98;116865;1183;21925;-51
2022/07/04 10:18:30;;;;;;;5.20;2.90;;;;;;;36.44;27.93;100612.63;117622;1186;23659;-59
2022/07/04 10:20:57;;;;;;;4.30;2.40;;;;;;;36.54;27.80;100612.14;116906;1189;21848;-57
2022/07/04 10:23:30;;;;;;;5.00;2.80;;;;;;;36.59;27.73;100616.83;116868;1188;23065;-58
2022/07/04 10:25:58;;;;;;;5.20;2.80;;;;;;;36.67;27.22;100611.85;116863;1189;23558;-51
2022/07/04 10:28:25;;;;;;;3.70;2.40;;;;;;;36.80;26.60;100609.23;116975;1185;23601;-58
2022/07/04 10:30:53;;;;;;;5.00;2.50;;;;;;;36.82;25.94;100608.02;116945;1189;22638;-57
2022/07/04 10:33:24;;;;;;;3.90;2.50;;;;;;;36.79;26.36;100607.83;116849;1187;22929;-50
2022/07/04 10:35:55;;;;;;;5.60;2.70;;;;;;;36.72;25.99;100607.63;116953;1188;22846;-50
2022/07/04 10:38:25;;;;;;;5.70;2.90;;;;;;;36.72;26.32;100604.44;116865;1187;23510;-58
2022/07/04 10:41:06;;;;;;;6.00;2.40;;;;;;;36.78;25.90;100600.09;117276;1188;24173;-49
2022/07/04 10:43:42;;;;;;;7.80;2.80;;;;;;;36.81;25.99;100600.73;116911;1187;23490;-58
2022/07/04 10:46:16;;;;;;;5.50;2.50;;;;;;;36.88;26.19;100594.34;117155;1185;22937;-50
2022/07/04 10:48:53;;;;;;;4.50;2.40;;;;;;;37.10;26.25;100595.03;117341;1185;23560;-50
2022/07/04 10:51:53;;;;;;;6.00;2.50;;;;;;;37.26;25.85;100593.94;117189;1185;23542;-57
2022/07/04 10:54:30;;;;;;;6.50;2.70;;;;;;;37.16;25.09;100594.98;117190;1186;23656;-58
2022/07/04 10:57:32;;;;;;;8.10;2.50;;;;;;;36.98;25.44;100591.94;117101;1188;22171;-58
2022/07/04 11:00:01;;;;;;;5.80;2.30;;;;;;;36.94;24.02;100586.54;116810;1187;21861;-50
2022/07/04 11:02:30;;;;;;;4.60;2.30;;;;;;;36.97;24.97;100584.02;117189;1186;21845;-57
2022/07/04 11:05:09;;;;;;;8.10;2.70;;;;;;;37.08;24.78;100581.04;117205;1185;21848;-50
2022/07/04 11:07:37;;;;;;;3.90;2.50;;;;;;;37.18;24.71;100581.05;117223;1185;23638;-57
2022/07/04 11:10:22;;;;;;;4.00;2.30;;;;;;;37.30;25.12;100581.38;117148;1186;22928;-56
2022/07/04 11:12:55;;;;;;;4.30;2.60;;;;;;;37.38;25.42;100580.80;117140;1185;23452;-50
2022/07/04 11:15:29;;;;;;;4.40;2.60;;;;;;;37.51;25.31;100577.78;117089;1186;21891;-59
2022/07/04 11:17:57;;;;;;;4.40;2.10;;;;;;;37.58;24.36;100578.38;117309;1185;22068;-58
2022/07/04 11:20:25;;;;;;;4.40;2.50;;;;;;;37.54;23.93;100572.84;117121;1182;22818;-50
2022/07/04 11:22:53;;;;;;;4.70;2.50;;;;;;;37.55;24.76;100570.45;117362;1186;21864;-50
2022/07/04 11:25:21;;;;;;;4.70;2.80;;;;;;;37.58;24.24;100571.79;117286;1186;21967;-58
2022/07/04 11:27:48;;;;;;;6.90;2.40;;;;;;;37.59;24.38;100568.72;117134;1188;23584;-50
2022/07/04 11:30:15;;;;;;;6.20;2.50;;;;;;;37.64;24.62;100568.48;117167;1185;23569;-57
2022/07/04 11:32:42;;;;;;;4.20;2.40;;;;;;;37.70;24.69;100566.86;117023;1187;21906;-50
2022/07/04 11:35:16;;;;;;;4.80;2.20;;;;;;;37.77;24.64;100561.83;117217;1185;21852;-50
2022/07/04 11:37:44;;;;;;;5.30;2.30;;;;;;;37.87;24.09;100565.23;117190;1185;21986;-50
2022/07/04 11:45:51;;;;;;;5.70;2.50;;;;;;;37.32;23.64;100566.55;117223;1185;23479;-50
2022/07/04 11:48:36;;;;;;;5.70;2.60;;;;;;;37.36;24.02;100568.06;117207;1188;21859;-57
2022/07/04 11:51:04;;;;;;;6.10;2.40;;;;;;;37.31;22.96;100562.27;117233;1186;23087;-57
2022/07/04 11:53:31;;;;;;;3.90;2.20;;;;;;;37.25;22.96;100562.96;117009;1185;21859;-49
2022/07/04 11:56:01;;;;;;;2.90;2.30;;;;;;;37.29;22.98;100564.16;117151;1184;21867;-50
2022/07/04 11:58:46;;;;;;;;;;;;;;;37.32;23.30;100568.95;117124;1186;23436;-50
2022/07/04 12:01:13;;;;;;;6.90;2.70;;;;;;;37.29;23.26;100564.55;117061;1187;21906;-50
2022/07/04 12:03:41;;;;;;;6.40;2.60;;;;;;;37.26;23.36;100557.98;117032;1188;23557;-50
2022/07/04 12:06:09;;;;;;;3.80;2.70;;;;;;;37.30;22.91;100551.38;117321;1186;21845;-52
2022/07/04 12:08:48;;;;;;;4.30;2.40;;;;;;;37.22;23.01;100551.89;117191;1185;21853;-51
2022/07/04 12:11:15;;;;;;;5.50;2.30;;;;;;;37.17;23.45;100550.90;117058;1190;24711;-50
2022/07/04 12:13:42;;;;;;;8.80;2.50;;;;;;;37.20;23.43;100546.97;117085;1185;22713;-49
2022/07/04 12:16:12;;;;;;;4.30;2.30;;;;;;;37.15;23.26;100547.48;117239;1185;21898;-50
2022/07/04 12:18:40;;;;;;;5.10;2.20;;;;;;;37.17;23.42;100539.42;117037;1187;21848;-50
2022/07/04 12:21:12;;;;;;;4.50;2.40;;;;;;;37.22;23.06;100538.73;117214;1184;22946;-59
2022/07/04 12:23:39;;;;;;;3.80;2.20;;;;;;;37.31;23.36;100539.77;117292;1185;21901;-50
2022/07/04 12:26:27;;;;;;;5.90;2.20;;;;;;;37.40;23.25;100543.00;117133;1183;22781;-57
2022/07/04 12:28:56;;;;;;;4.80;2.40;;;;;;;37.42;22.93;100539.86;117131;1185;24303;-57
2022/07/04 12:31:39;;;;;;;5.30;2.40;;;;;;;37.38;23.52;100536.00;117191;1183;23735;-50
2022/07/04 12:34:16;;;;;;;4.70;2.70;;;;;;;37.42;23.41;100537.13;117237;1182;22926;-57
2022/07/04 12:36:51;;;;;;;5.10;2.30;;;;;;;37.48;23.10;100539.16;117114;1188;22809;-57
2022/07/04 12:39:34;;;;;;;5.40;2.60;;;;;;;37.56;23.36;100534.61;117362;1183;21856;-56
2022/07/04 12:42:05;;;;;;;8.00;2.70;;;;;;;37.65;23.33;100532.46;117189;1185;21877;-57
2022/07/04 12:44:32;;;;;;;6.10;2.80;;;;;;;37.76;23.59;100530.80;117327;1185;21912;-58
2022/07/04 12:47:00;;;;;;;8.90;2.30;;;;;;;37.98;23.26;100535.86;117162;1185;23618;-51
2022/07/04 12:49:47;;;;;;;5.90;2.90;;;;;;;37.93;23.01;100537.52;117031;1185;23471;-58
2022/07/04 12:52:16;;;;;;;5.70;2.40;;;;;;;37.87;23.51;100534.77;117081;1185;22999;-51
2022/07/04 12:54:45;;;;;;;4.80;2.30;;;;;;;37.87;23.25;100534.94;117210;1185;21858;-58
2022/07/04 12:57:14;;;;;;;6.60;2.70;;;;;;;37.89;23.58;100532.13;117075;1185;21862;-57
2022/07/04 12:59:41;;;;;;;5.20;2.60;;;;;;;38.12;23.78;100533.30;117041;1187;23603;-57
2022/07/04 13:02:09;;;;;;;4.10;2.50;;;;;;;38.34;23.45;100527.40;117137;1186;21855;-52
2022/07/04 13:04:36;;;;;;;2.80;2.00;;;;;;;38.34;23.37;100526.26;117122;1182;21850;-51
2022/07/04 13:07:17;;;;;;;8.00;2.60;;;;;;;38.36;23.49;100525.14;116928;1183;21979;-51
2022/07/04 13:09:44;;;;;;;4.20;2.30;;;;;;;38.32;23.38;100529.84;117069;1185;23045;-59
2022/07/04 13:12:24;;;;;;;3.90;2.40;;;;;;;38.25;23.41;100530.55;117111;1186;22918;-51
2022/07/04 13:14:52;;;;;;;6.40;2.70;;;;;;;38.13;23.33;100529.77;117067;1187;21847;-51
2022/07/04 13:17:20;;;;;;;9.60;2.80;;;;;;;38.06;23.88;100528.56;117080;1186;22618;-59
2022/07/04 13:19:47;;;;;;;5.50;2.60;;;;;;;38.31;23.65;100529.65;117062;1186;21872;-58
2022/07/04 13:22:14;;;;;;;5.20;2.30;;;;;;;38.42;23.28;100530.45;117181;1186;21866;-54
2022/07/04 13:24:41;;;;;;;4.80;2.40;;;;;;;38.35;23.34;100530.16;117109;1185;22787;-53
2022/07/04 13:27:08;;;;;;;5.40;2.50;;;;;;;38.22;23.11;100531.83;116992;1186;22840;-58
2022/07/04 13:29:35;;;;;;;5.60;2.60;;;;;;;38.06;23.32;100527.25;117122;1185;21863;-52
2022/07/04 13:32:03;;;;;;;5.10;2.40;;;;;;;37.95;23.38;100524.35;116928;1187;22153;-58
2022/07/04 13:34:37;;;;;;;8.10;2.80;;;;;;;37.79;23.55;100523.08;117048;1186;23735;-51
2022/07/04 13:37:05;;;;;;;8.30;2.80;;;;;;;37.76;23.51;100522.79;116994;1185;23389;-59
2022/07/04 13:39:32;;;;;;;6.80;2.20;;;;;;;37.67;23.64;100524.45;117281;1185;22925;-59
2022/07/04 13:42:56;;;;;;;5.10;3.10;;;;;;;37.57;23.63;100523.38;117307;1185;23348;-58
2022/07/04 13:45:04;;;;;;;4.50;2.80;;;;;;;37.62;23.71;100522.80;117139;1183;21864;-52
2022/07/04 13:47:31;;;;;;;3.90;2.30;;;;;;;37.64;23.76;100523.20;117193;1187;21970;-49
2022/07/04 13:49:58;;;;;;;3.40;2.60;;;;;;;37.60;23.77;100524.50;117353;1185;22901;-58
2022/07/04 13:52:26;;;;;;;4.70;2.50;;;;;;;37.54;23.80;100517.90;117293;1185;22623;-58
2022/07/04 13:54:53;;;;;;;6.50;2.40;;;;;;;37.57;23.98;100512.27;117215;1186;21859;-59
2022/07/04 13:57:20;;;;;;;6.50;2.60;;;;;;;37.64;24.03;100509.18;117157;1186;22734;-52
2022/07/04 13:59:47;;;;;;;4.60;2.40;;;;;;;37.78;24.08;100506.41;117266;1182;22936;-53
2022/07/04 14:02:14;;;;;;;6.70;2.60;;;;;;;38.02;23.87;100506.40;117152;1182;21857;-51
2022/07/04 14:04:41;;;;;;;5.90;2.80;;;;;;;38.07;23.43;100507.27;117212;1188;22900;-60
2022/07/04 14:07:08;;;;;;;5.20;2.70;;;;;;;37.84;23.43;100502.42;117321;1188;23559;-59
2022/07/04 14:09:44;;;;;;;5.80;2.60;;;;;;;37.57;23.76;100498.71;117059;1187;23472;-59